Time;durP1;ratioP1;P1;durP2;ratioP2;P2;SDS_P1;SDS_P2;PMS_P1;PMS_P2;Temp;Humidity;BMP_temperature;BMP_pressure;BME280_temperature;BME280_humidity;BME280_pressure;Samples;Min_cycle;Max_cycle;Signal;HPM_P1;HPM_P2
2024/04/17 00:01:42;;;;;;;4.53;2.70;;;24.00;53.50;;;;;;5454936;26;20468;-69
2024/04/17 00:04:08;;;;;;;5.13;3.33;;;24.00;53.40;;;;;;5455828;26;20231;-70
2024/04/17 00:06:34;;;;;;;3.77;2.57;;;24.00;53.40;;;;;;5453702;26;20285;-69
2024/04/17 00:09:00;;;;;;;3.70;2.77;;;24.00;53.40;;;;;;5447180;26;20461;-70
2024/04/17 00:11:26;;;;;;;4.63;2.97;;;24.00;53.40;;;;;;5456505;26;20437;-70
2024/04/17 00:13:51;;;;;;;3.73;2.73;;;24.00;53.40;;;;;;5455785;26;20235;-70
2024/04/17 00:16:17;;;;;;;3.07;2.77;;;24.00;53.40;;;;;;5455409;26;20251;-70
2024/04/17 00:18:42;;;;;;;4.20;2.93;;;24.00;53.40;;;;;;5456671;26;20286;-70
2024/04/17 00:21:08;;;;;;;3.57;2.20;;;24.00;53.50;;;;;;5454210;26;20635;-70
2024/04/17 00:23:34;;;;;;;4.73;2.67;;;24.00;53.50;;;;;;5453582;26;20281;-70
2024/04/17 00:25:59;;;;;;;4.47;2.90;;;24.00;53.50;;;;;;5456013;26;20281;-68
2024/04/17 00:28:25;;;;;;;3.47;2.93;;;24.00;53.50;;;;;;5455500;26;20277;-71
2024/04/17 00:30:51;;;;;;;3.30;2.17;;;23.90;53.70;;;;;;5455655;26;20239;-69
2024/04/17 00:33:16;;;;;;;4.50;2.97;;;23.90;53.40;;;;;;5450646;26;20452;-69
2024/04/17 00:35:42;;;;;;;4.37;3.00;;;24.00;53.50;;;;;;5456283;26;20219;-70
2024/04/17 00:38:08;;;;;;;3.70;2.90;;;24.00;53.50;;;;;;5452468;26;20247;-70
2024/04/17 00:40:35;;;;;;;4.00;2.43;;;23.90;53.40;;;;;;5439438;26;20235;-69
2024/04/17 00:43:01;;;;;;;2.97;2.70;;;23.90;53.40;;;;;;5454348;26;20323;-69
2024/04/17 00:45:32;;;;;;;3.37;2.50;;;23.90;53.50;;;;;;5456341;26;20452;-69
2024/04/17 00:47:58;;;;;;;2.90;2.40;;;23.90;53.40;;;;;;5451277;26;21014;-71
2024/04/17 00:50:25;;;;;;;3.70;2.40;;;23.90;53.40;;;;;;5449745;26;20582;-70
2024/04/17 00:52:52;;;;;;;3.50;2.90;;;23.90;53.50;;;;;;5449998;26;20460;-69
2024/04/17 00:55:17;;;;;;;3.30;2.27;;;23.90;53.50;;;;;;5451212;26;20480;-70
2024/04/17 00:57:44;;;;;;;2.63;2.03;;;23.90;53.50;;;;;;5451937;26;20820;-71
2024/04/17 01:00:10;;;;;;;3.53;2.23;;;23.90;53.50;;;;;;5451353;26;20818;-69
2024/04/17 01:02:36;;;;;;;4.77;2.80;;;23.90;53.50;;;;;;5450315;26;20464;-70
2024/04/17 01:05:01;;;;;;;2.77;2.30;;;23.90;53.50;;;;;;5450430;26;20574;-69
2024/04/17 01:07:33;;;;;;;3.50;2.53;;;23.90;53.50;;;;;;5451961;26;20243;-69
2024/04/17 01:09:58;;;;;;;5.20;3.03;;;23.90;53.50;;;;;;5448025;26;20238;-69
2024/04/17 01:12:24;;;;;;;4.23;2.80;;;23.90;53.50;;;;;;5448098;26;20509;-68
2024/04/17 01:14:50;;;;;;;4.20;2.80;;;23.90;53.50;;;;;;5450984;26;20741;-70
2024/04/17 01:17:15;;;;;;;4.60;3.40;;;23.90;53.50;;;;;;5451629;26;20547;-71
2024/04/17 01:19:41;;;;;;;3.43;2.83;;;23.90;53.50;;;;;;5449358;26;20253;-70
2024/04/17 01:22:07;;;;;;;3.93;2.00;;;23.90;53.50;;;;;;5447962;26;20732;-69
2024/04/17 01:24:32;;;;;;;3.53;2.80;;;23.90;53.50;;;;;;5450850;26;20235;-69
2024/04/17 01:26:58;;;;;;;4.40;2.70;;;23.90;53.50;;;;;;5450695;26;20231;-72
2024/04/17 01:29:23;;;;;;;5.23;2.53;;;23.90;53.50;;;;;;5450456;26;20286;-70
2024/04/17 01:31:49;;;;;;;4.53;2.27;;;23.80;53.40;;;;;;5450384;26;20274;-70
2024/04/17 01:34:15;;;;;;;3.40;2.53;;;23.80;53.40;;;;;;5450240;26;20235;-70
2024/04/17 01:36:40;;;;;;;4.03;2.40;;;23.80;53.40;;;;;;5450721;26;20340;-70
2024/04/17 01:39:06;;;;;;;4.03;2.57;;;23.90;53.50;;;;;;5451125;26;20231;-70
2024/04/17 01:41:31;;;;;;;3.20;1.73;;;23.80;53.40;;;;;;5443788;26;20733;-69
2024/04/17 01:43:57;;;;;;;4.50;2.67;;;23.80;53.40;;;;;;5450326;26;20235;-69
2024/04/17 01:46:23;;;;;;;3.40;2.70;;;23.80;53.40;;;;;;5448876;26;20615;-69
2024/04/17 01:48:48;;;;;;;2.70;2.10;;;23.90;53.50;;;;;;5450956;26;20239;-70
2024/04/17 01:51:14;;;;;;;5.40;2.60;;;23.80;53.40;;;;;;5444745;26;20236;-70
2024/04/17 01:53:39;;;;;;;4.67;2.20;;;23.80;53.50;;;;;;5449849;26;20265;-69
2024/04/17 01:56:05;;;;;;;2.27;1.67;;;23.80;53.40;;;;;;5447101;26;20235;-70
2024/04/17 01:58:31;;;;;;;2.80;2.20;;;23.80;53.50;;;;;;5449878;26;20352;-69
2024/04/17 02:00:56;;;;;;;3.17;2.40;;;23.80;53.50;;;;;;5449850;26;21022;-68
2024/04/17 02:03:22;;;;;;;2.93;2.20;;;23.80;53.50;;;;;;5449550;26;20227;-69
2024/04/17 02:05:48;;;;;;;3.37;2.27;;;23.80;53.50;;;;;;5447675;26;20286;-69
2024/04/17 02:08:14;;;;;;;3.73;2.00;;;23.80;53.50;;;;;;5451053;26;20239;-70
2024/04/17 02:10:39;;;;;;;3.73;2.77;;;23.80;53.50;;;;;;5416632;26;20277;-70
2024/04/17 02:13:05;;;;;;;2.67;1.90;;;23.80;53.50;;;;;;5445452;26;20820;-70
2024/04/17 02:15:34;;;;;;;3.40;1.97;;;23.80;53.50;;;;;;5442031;26;20343;-69
2024/04/17 02:17:59;;;;;;;4.33;2.17;;;23.80;53.50;;;;;;5431340;26;20626;-70
2024/04/17 02:20:25;;;;;;;2.00;1.80;;;23.80;53.50;;;;;;5414889;26;20509;-70
2024/04/17 02:22:50;;;;;;;2.93;2.20;;;23.80;53.50;;;;;;5428866;26;20240;-69
2024/04/17 02:25:16;;;;;;;3.57;2.00;;;23.80;53.50;;;;;;5451016;26;20262;-69
2024/04/17 02:27:42;;;;;;;3.33;1.87;;;23.80;53.50;;;;;;5449581;26;20243;-70
2024/04/17 02:30:08;;;;;;;4.53;2.70;;;23.80;53.50;;;;;;5449996;26;20231;-70
2024/04/17 02:32:33;;;;;;;2.87;2.30;;;23.80;53.50;;;;;;5447295;26;20243;-68
2024/04/17 02:34:59;;;;;;;2.60;2.20;;;23.80;53.50;;;;;;5450317;26;20460;-70
2024/04/17 02:37:24;;;;;;;2.63;2.17;;;23.80;53.50;;;;;;5449063;26;20326;-71
2024/04/17 02:39:50;;;;;;;2.83;2.37;;;23.80;53.50;;;;;;5445482;26;20302;-71
2024/04/17 02:42:16;;;;;;;3.73;2.30;;;23.80;53.50;;;;;;5448278;26;20329;-70
2024/04/17 02:44:41;;;;;;;2.20;2.00;;;23.80;53.50;;;;;;5448723;26;20231;-70
2024/04/17 02:47:07;;;;;;;3.53;2.10;;;23.80;53.50;;;;;;5450233;26;20215;-69
2024/04/17 02:49:32;;;;;;;3.10;2.40;;;23.80;53.50;;;;;;5449256;26;20243;-70
2024/04/17 02:51:58;;;;;;;3.43;1.90;;;23.80;53.50;;;;;;5415968;26;20262;-70
2024/04/17 02:54:23;;;;;;;3.03;2.03;;;23.80;53.50;;;;;;5447646;26;20235;-70
2024/04/17 02:56:49;;;;;;;2.93;2.10;;;23.70;53.40;;;;;;5449402;26;20580;-70
2024/04/17 02:59:14;;;;;;;4.30;2.20;;;23.80;53.50;;;;;;5450023;26;20239;-69
2024/04/17 03:01:40;;;;;;;2.93;2.13;;;23.80;53.50;;;;;;5448563;26;20231;-70
2024/04/17 03:04:05;;;;;;;3.40;2.40;;;23.80;53.50;;;;;;5449086;26;20729;-70
2024/04/17 03:06:33;;;;;;;2.67;2.03;;;23.70;53.40;;;;;;5449808;26;20278;-70
2024/04/17 03:08:58;;;;;;;3.13;1.93;;;23.70;53.40;;;;;;5450151;26;20223;-70
2024/04/17 03:11:24;;;;;;;2.53;2.03;;;23.70;53.40;;;;;;5406512;26;20514;-70
2024/04/17 03:13:50;;;;;;;2.10;1.90;;;23.70;53.40;;;;;;5445232;26;20592;-70
2024/04/17 03:16:16;;;;;;;3.93;2.53;;;23.70;53.40;;;;;;5424112;26;20882;-69
2024/04/17 03:18:41;;;;;;;4.03;2.17;;;23.70;53.40;;;;;;5414228;26;20461;-71
2024/04/17 03:21:07;;;;;;;3.10;1.90;;;23.70;53.40;;;;;;5414531;26;20308;-70
2024/04/17 03:23:32;;;;;;;2.00;1.77;;;23.70;53.40;;;;;;5434145;26;20243;-70
2024/04/17 03:26:00;;;;;;;3.07;2.20;;;23.80;53.50;;;;;;5448889;26;20235;-70
2024/04/17 03:28:26;;;;;;;2.40;2.03;;;23.70;53.40;;;;;;5448719;26;20660;-69
2024/04/17 03:30:52;;;;;;;4.23;2.00;;;23.70;53.50;;;;;;5446107;26;20469;-70
2024/04/17 03:33:17;;;;;;;2.70;1.70;;;23.70;53.50;;;;;;5445480;26;20513;-70
2024/04/17 03:35:56;;;;;;;2.83;2.00;;;23.70;53.40;;;;;;5446128;26;20227;-70
2024/04/17 03:38:22;;;;;;;2.13;1.70;;;23.80;53.50;;;;;;5449292;26;20273;-70
2024/04/17 03:40:47;;;;;;;2.30;1.97;;;23.70;53.50;;;;;;5416531;26;20991;-70
2024/04/17 03:43:13;;;;;;;4.70;1.87;;;23.70;53.50;;;;;;5449399;26;20228;-70
2024/04/17 03:45:39;;;;;;;3.77;2.30;;;23.70;53.50;;;;;;5446851;26;20426;-69
2024/04/17 03:48:04;;;;;;;2.30;1.83;;;23.70;53.50;;;;;;5449366;26;20292;-69
2024/04/17 03:50:30;;;;;;;2.50;1.97;;;23.70;53.50;;;;;;5448153;26;20748;-69
2024/04/17 03:52:56;;;;;;;2.83;2.03;;;23.70;53.50;;;;;;5447398;26;20860;-70
2024/04/17 03:55:21;;;;;;;2.30;1.80;;;23.70;53.50;;;;;;5449080;26;20300;-69
2024/04/17 03:57:47;;;;;;;3.00;2.10;;;23.70;53.50;;;;;;5448093;26;20696;-70
2024/04/17 04:00:13;;;;;;;2.40;1.83;;;23.70;53.50;;;;;;5448166;26;20692;-71
2024/04/17 04:02:39;;;;;;;2.77;2.30;;;23.70;53.50;;;;;;5447285;26;20270;-69
2024/04/17 04:05:04;;;;;;;2.90;2.03;;;23.70;53.50;;;;;;5448869;26;20437;-70
2024/04/17 04:07:30;;;;;;;2.40;1.63;;;23.70;53.50;;;;;;5445079;26;20277;-70
2024/04/17 04:09:55;;;;;;;1.93;1.60;;;23.70;53.50;;;;;;5445996;26;20588;-69
2024/04/17 04:12:21;;;;;;;3.77;1.90;;;23.70;53.50;;;;;;5448044;26;20231;-69
2024/04/17 04:14:47;;;;;;;2.33;1.60;;;23.70;53.50;;;;;;5448114;26;20267;-69
2024/04/17 04:17:12;;;;;;;2.70;1.77;;;23.70;53.50;;;;;;5447004;26;20231;-69
2024/04/17 04:19:38;;;;;;;1.97;1.53;;;23.70;53.50;;;;;;5449026;26;20220;-69
2024/04/17 04:22:04;;;;;;;2.17;1.77;;;23.70;53.50;;;;;;5446402;26;20654;-69
2024/04/17 04:24:29;;;;;;;2.93;1.80;;;23.70;53.50;;;;;;5448645;26;20231;-69
2024/04/17 04:26:55;;;;;;;2.80;2.03;;;23.70;53.50;;;;;;5451644;26;20274;-69
2024/04/17 04:29:20;;;;;;;2.10;1.67;;;23.70;53.50;;;;;;5450270;26;20236;-70
2024/04/17 04:31:46;;;;;;;1.93;1.60;;;23.70;53.50;;;;;;5450551;26;20278;-69
2024/04/17 04:34:12;;;;;;;3.07;1.47;;;23.70;53.50;;;;;;5452119;26;20242;-69
2024/04/17 04:36:37;;;;;;;2.13;1.60;;;23.70;53.50;;;;;;5451192;26;20236;-68
2024/04/17 04:39:03;;;;;;;3.10;1.77;;;23.70;53.50;;;;;;5447969;26;20277;-70
2024/04/17 04:41:29;;;;;;;2.67;1.40;;;23.70;53.50;;;;;;5449774;26;20235;-69
2024/04/17 04:43:55;;;;;;;2.20;1.70;;;23.70;53.50;;;;;;5452413;26;20227;-68
2024/04/17 04:46:21;;;;;;;2.80;1.73;;;23.70;53.30;;;;;;5449222;26;21002;-69
2024/04/17 04:48:46;;;;;;;3.23;1.77;;;23.70;53.30;;;;;;5452046;26;20239;-69
2024/04/17 04:51:12;;;;;;;2.73;2.00;;;23.70;53.30;;;;;;5448977;26;20347;-69
2024/04/17 04:53:37;;;;;;;3.30;1.90;;;23.70;53.40;;;;;;5450438;26;20689;-70
2024/04/17 04:56:04;;;;;;;2.10;1.50;;;23.70;53.40;;;;;;5450845;26;20235;-69
2024/04/17 04:58:30;;;;;;;2.10;1.80;;;23.70;53.50;;;;;;5450886;26;20242;-70
2024/04/17 05:00:56;;;;;;;3.10;1.60;;;23.70;53.50;;;;;;5446563;26;20468;-70
2024/04/17 05:03:22;;;;;;;2.40;1.40;;;23.70;53.50;;;;;;5449373;26;20863;-68
2024/04/17 05:05:47;;;;;;;1.90;1.60;;;23.70;53.50;;;;;;5437352;26;20244;-71
2024/04/17 05:08:13;;;;;;;2.27;1.83;;;23.70;53.50;;;;;;5426136;26;20566;-68
2024/04/17 05:10:39;;;;;;;2.27;1.70;;;23.70;53.50;;;;;;5451701;26;20618;-69
2024/04/17 05:13:05;;;;;;;2.10;1.50;;;23.70;53.50;;;;;;5432296;26;20469;-69
2024/04/17 05:15:31;;;;;;;1.83;1.40;;;23.70;53.60;;;;;;5420198;26;21258;-70
2024/04/17 05:17:56;;;;;;;2.60;1.80;;;23.70;53.60;;;;;;5452163;26;20285;-69
2024/04/17 05:20:22;;;;;;;2.87;1.83;;;23.70;53.60;;;;;;5452608;26;20235;-70
2024/04/17 05:22:48;;;;;;;2.43;1.70;;;23.70;53.60;;;;;;5451946;26;20220;-69
2024/04/17 05:25:15;;;;;;;2.00;1.77;;;23.70;53.60;;;;;;5451045;26;20223;-71
2024/04/17 05:27:41;;;;;;;2.07;1.77;;;23.70;53.60;;;;;;5452415;26;20702;-69
2024/04/17 05:30:11;;;;;;;2.07;1.60;;;23.70;53.60;;;;;;5452489;26;20449;-70
2024/04/17 05:32:36;;;;;;;1.80;1.50;;;23.70;53.60;;;;;;5451767;26;20513;-68
2024/04/17 05:35:02;;;;;;;3.90;1.90;;;23.70;53.60;;;;;;5452485;26;20437;-70
2024/04/17 05:37:27;;;;;;;1.60;1.37;;;23.70;54.10;;;;;;5451815;26;20247;-70
2024/04/17 05:39:53;;;;;;;3.23;2.30;;;23.70;53.60;;;;;;5452354;26;20223;-71
2024/04/17 05:42:19;;;;;;;2.40;1.50;;;23.70;53.60;;;;;;5452375;26;20223;-70
2024/04/17 05:44:45;;;;;;;2.87;1.53;;;23.70;53.60;;;;;;5420435;26;20770;-70
2024/04/17 05:47:10;;;;;;;3.40;1.57;;;23.70;53.60;;;;;;5451910;26;20974;-70
2024/04/17 05:49:36;;;;;;;3.33;1.73;;;23.70;53.60;;;;;;5452106;26;20257;-69
2024/04/17 05:52:02;;;;;;;3.17;1.53;;;23.70;53.60;;;;;;5452033;26;20219;-70
2024/04/17 05:54:28;;;;;;;1.70;1.53;;;23.70;53.60;;;;;;5450134;26;20274;-70
2024/04/17 05:56:54;;;;;;;2.30;1.60;;;23.70;53.60;;;;;;5452034;26;20283;-69
2024/04/17 05:59:19;;;;;;;2.37;1.60;;;23.70;53.60;;;;;;5451619;26;20328;-71
2024/04/17 06:01:45;;;;;;;2.30;1.60;;;23.70;53.60;;;;;;5451840;26;20457;-71
2024/04/17 06:04:11;;;;;;;2.53;1.60;;;23.70;53.60;;;;;;5452208;26;20627;-69
2024/04/17 06:06:36;;;;;;;2.20;1.53;;;23.70;53.60;;;;;;5452197;26;20335;-70
2024/04/17 06:09:02;;;;;;;2.50;1.50;;;23.70;54.10;;;;;;5451837;26;20336;-70
2024/04/17 06:11:27;;;;;;;2.40;1.53;;;23.70;53.60;;;;;;5451987;26;20239;-70
2024/04/17 06:13:53;;;;;;;2.73;1.53;;;23.70;53.60;;;;;;5452120;26;20211;-71
2024/04/17 06:16:19;;;;;;;2.10;1.07;;;23.70;53.60;;;;;;5480812;26;20215;-71
2024/04/17 06:18:44;;;;;;;2.43;1.70;;;23.70;53.60;;;;;;5451376;26;20713;-70
2024/04/17 06:21:10;;;;;;;4.70;1.77;;;23.80;53.70;;;;;;5451874;26;20764;-70
2024/04/17 06:23:35;;;;;;;1.97;1.40;;;23.70;53.60;;;;;;5451718;26;20219;-69
2024/04/17 06:26:01;;;;;;;3.53;1.63;;;23.70;53.60;;;;;;5451854;26;20254;-70
2024/04/17 06:28:27;;;;;;;3.27;1.50;;;23.70;53.60;;;;;;5451932;26;20247;-70
2024/04/17 06:30:52;;;;;;;2.50;1.40;;;23.70;53.60;;;;;;5451522;26;20573;-70
2024/04/17 06:33:18;;;;;;;1.97;1.60;;;23.80;53.70;;;;;;5451409;26;20756;-70
2024/04/17 06:35:44;;;;;;;1.90;1.50;;;23.80;53.70;;;;;;5451623;26;20231;-71
2024/04/17 06:38:09;;;;;;;1.80;1.20;;;23.70;53.60;;;;;;5451421;26;20231;-71
2024/04/17 06:40:35;;;;;;;2.40;1.70;;;23.70;53.60;;;;;;5451456;26;20223;-69
2024/04/17 06:43:01;;;;;;;2.63;1.50;;;23.80;53.70;;;;;;5451761;26;20219;-70
2024/04/17 06:45:26;;;;;;;2.63;1.40;;;23.80;53.70;;;;;;5450166;26;20219;-70
2024/04/17 06:47:53;;;;;;;2.30;1.43;;;23.80;53.70;;;;;;5451647;26;20593;-70
2024/04/17 06:50:19;;;;;;;5.30;2.23;;;23.80;53.70;;;;;;5451235;26;20223;-70
2024/04/17 06:52:44;;;;;;;1.70;1.30;;;23.80;53.70;;;;;;5451469;26;20501;-70
2024/04/17 06:55:10;;;;;;;2.63;1.40;;;23.80;53.70;;;;;;5451311;26;20219;-70
2024/04/17 06:57:36;;;;;;;2.67;1.47;;;23.80;53.70;;;;;;5450904;26;20622;-69
2024/04/17 07:00:01;;;;;;;3.43;1.30;;;23.80;53.70;;;;;;5419480;26;20254;-70
2024/04/17 07:02:27;;;;;;;1.90;1.47;;;23.80;53.70;;;;;;5451297;26;20696;-70
2024/04/17 07:04:52;;;;;;;2.30;1.37;;;23.80;53.60;;;;;;5451109;26;20330;-70
2024/04/17 07:07:18;;;;;;;1.80;1.27;;;23.80;53.60;;;;;;5450900;26;20231;-71
2024/04/17 07:09:44;;;;;;;1.60;1.30;;;23.80;53.60;;;;;;5450631;26;20269;-70
2024/04/17 07:12:10;;;;;;;1.83;1.17;;;23.80;53.60;;;;;;5450586;26;20709;-72
2024/04/17 07:14:35;;;;;;;3.10;1.90;;;23.80;53.60;;;;;;5450191;26;20690;-70
2024/04/17 07:17:01;;;;;;;1.53;1.10;;;23.80;53.60;;;;;;5450342;26;20456;-70
2024/04/17 07:19:27;;;;;;;2.10;1.40;;;23.80;53.60;;;;;;5450120;26;20234;-70
2024/04/17 07:21:53;;;;;;;1.80;1.33;;;23.80;53.60;;;;;;5450500;26;20223;-70
2024/04/17 07:24:18;;;;;;;1.47;1.07;;;23.80;53.60;;;;;;5451012;26;20231;-72
2024/04/17 07:26:44;;;;;;;1.97;1.40;;;23.90;53.70;;;;;;5450125;26;20505;-69
2024/04/17 07:29:10;;;;;;;2.20;1.20;;;23.90;53.70;;;;;;5449541;26;20266;-70
2024/04/17 07:31:36;;;;;;;3.83;1.80;;;23.80;53.60;;;;;;5449951;26;20512;-70
2024/04/17 07:34:01;;;;;;;2.03;1.40;;;23.80;53.60;;;;;;5450050;26;20323;-70
2024/04/17 07:36:27;;;;;;;1.93;1.30;;;23.90;53.60;;;;;;5449636;26;20215;-70
2024/04/17 07:38:53;;;;;;;2.10;1.40;;;23.90;53.60;;;;;;5449683;26;20239;-70
2024/04/17 07:41:18;;;;;;;1.77;1.17;;;23.90;53.60;;;;;;5449810;26;20279;-69
2024/04/17 07:43:44;;;;;;;4.33;1.30;;;23.90;53.60;;;;;;5449814;26;20224;-68
2024/04/17 07:46:10;;;;;;;2.57;1.77;;;23.90;53.60;;;;;;5449848;26;20741;-68
2024/04/17 07:48:35;;;;;;;3.27;1.40;;;23.90;53.60;;;;;;5449351;26;20243;-71
2024/04/17 07:51:02;;;;;;;1.97;1.60;;;23.90;53.60;;;;;;5449424;26;20263;-70
2024/04/17 07:53:28;;;;;;;1.80;1.30;;;23.90;53.60;;;;;;5449702;26;20231;-69
2024/04/17 07:55:53;;;;;;;1.50;1.10;;;23.90;53.60;;;;;;5450265;26;20557;-69
2024/04/17 07:58:19;;;;;;;2.10;1.37;;;23.90;53.60;;;;;;5452881;26;20498;-70
2024/04/17 08:00:45;;;;;;;1.50;1.20;;;23.90;53.60;;;;;;5452775;26;20224;-70
2024/04/17 08:03:11;;;;;;;2.20;1.30;;;23.90;53.50;;;;;;5452931;26;20215;-71
2024/04/17 08:05:41;;;;;;;1.77;1.33;;;23.90;53.60;;;;;;5453129;26;20223;-71
2024/04/17 08:08:07;;;;;;;1.20;1.00;;;23.90;53.60;;;;;;5453348;26;20560;-70
2024/04/17 08:10:33;;;;;;;3.30;1.40;;;24.00;53.70;;;;;;5453434;26;20456;-71
2024/04/17 08:13:11;;;;;;;3.90;1.30;;;24.00;53.70;;;;;;5453016;26;20227;-71
2024/04/17 08:16:03;;;;;;;2.33;1.30;;;24.00;53.80;;;;;;5453211;26;20291;-70
2024/04/17 08:18:29;;;;;;;1.57;1.00;;;24.00;53.70;;;;;;5449143;26;21046;-70
2024/04/17 08:20:56;;;;;;;2.57;1.53;;;24.00;53.70;;;;;;5452940;26;20453;-70
2024/04/17 08:23:22;;;;;;;1.40;1.30;;;24.00;53.70;;;;;;5452803;26;20223;-70
2024/04/17 08:25:47;;;;;;;1.33;1.10;;;24.00;53.70;;;;;;5452704;26;20448;-70
2024/04/17 08:28:13;;;;;;;1.77;1.20;;;24.00;53.70;;;;;;5452958;26;20453;-72
2024/04/17 08:30:39;;;;;;;1.83;1.10;;;24.00;53.70;;;;;;5452390;26;20283;-71
2024/04/17 08:33:04;;;;;;;2.70;1.20;;;24.00;53.60;;;;;;5452465;26;20227;-69
2024/04/17 08:35:30;;;;;;;1.40;1.20;;;24.00;53.70;;;;;;5452480;26;20261;-71
2024/04/17 08:37:55;;;;;;;1.70;1.10;;;24.00;53.60;;;;;;5452523;26;20611;-72
2024/04/17 08:40:22;;;;;;;2.40;1.50;;;24.00;53.60;;;;;;5452257;26;20215;-70
2024/04/17 08:42:51;;;;;;;1.50;1.10;;;24.00;53.60;;;;;;5452235;26;20266;-71
2024/04/17 08:45:24;;;;;;;1.50;1.20;;;24.00;53.60;;;;;;5452124;26;20511;-70
2024/04/17 08:47:51;;;;;;;2.60;1.17;;;24.00;53.70;;;;;;5451871;26;20484;-68
2024/04/17 08:50:17;;;;;;;1.53;1.20;;;24.00;53.70;;;;;;5451768;26;20551;-70
2024/04/17 08:52:44;;;;;;;1.57;1.20;;;24.00;53.70;;;;;;5452297;26;20795;-71
2024/04/17 08:55:13;;;;;;;2.40;1.53;;;24.00;53.70;;;;;;5451760;26;20448;-69
2024/04/17 08:57:39;;;;;;;2.00;1.40;;;24.00;53.70;;;;;;5451328;26;20456;-70
2024/04/17 09:00:05;;;;;;;1.40;1.23;;;24.00;53.70;;;;;;5451672;26;20496;-71
2024/04/17 09:02:33;;;;;;;2.10;1.33;;;24.00;53.70;;;;;;5452268;26;20328;-70
2024/04/17 09:04:59;;;;;;;2.10;1.43;;;24.00;53.70;;;;;;5452141;26;20520;-69
2024/04/17 09:07:27;;;;;;;3.70;1.47;;;24.00;53.70;;;;;;5451423;26;20540;-70
2024/04/17 09:09:53;;;;;;;1.20;0.90;;;24.00;53.70;;;;;;5452178;26;20480;-71
2024/04/17 09:12:19;;;;;;;3.10;1.30;;;24.00;53.70;;;;;;5452182;26;20449;-70
2024/04/17 09:14:45;;;;;;;1.33;0.90;;;24.00;53.70;;;;;;5451915;26;20421;-70
2024/04/17 09:17:10;;;;;;;1.10;1.00;;;24.00;53.70;;;;;;5451539;26;20501;-70
2024/04/17 09:19:36;;;;;;;2.30;1.20;;;24.00;53.70;;;;;;5451928;26;20223;-69
2024/04/17 09:22:02;;;;;;;1.40;0.93;;;24.00;53.70;;;;;;5451882;26;20212;-70
2024/04/17 09:24:27;;;;;;;2.10;1.20;;;24.00;53.70;;;;;;5452189;26;20270;-69
2024/04/17 09:26:53;;;;;;;1.60;1.10;;;24.00;53.70;;;;;;5451837;26;20293;-69
2024/04/17 09:29:18;;;;;;;1.37;1.13;;;24.00;53.70;;;;;;5451623;26;20281;-69
2024/04/17 09:31:44;;;;;;;1.90;1.20;;;24.00;53.70;;;;;;5451654;26;20219;-70
2024/04/17 09:34:15;;;;;;;1.50;0.90;;;24.00;53.70;;;;;;5451444;26;20216;-70
2024/04/17 09:36:50;;;;;;;1.70;1.17;;;23.90;53.60;;;;;;5451676;26;21034;-69
2024/04/17 09:39:16;;;;;;;1.77;1.20;;;23.90;53.60;;;;;;5451729;26;20527;-70
2024/04/17 09:41:42;;;;;;;1.63;1.53;;;23.90;53.60;;;;;;5451559;26;20453;-69
2024/04/17 09:44:11;;;;;;;1.77;1.30;;;24.00;53.70;;;;;;5451703;26;20291;-70
2024/04/17 09:46:37;;;;;;;1.33;1.00;;;23.90;53.60;;;;;;5419819;26;20511;-69
2024/04/17 09:49:18;;;;;;;1.73;1.13;;;23.90;53.70;;;;;;5451575;26;20837;-71
2024/04/17 09:51:46;;;;;;;1.77;1.00;;;23.90;53.60;;;;;;5451438;26;21093;-69
2024/04/17 09:54:14;;;;;;;1.40;1.10;;;23.90;53.70;;;;;;5451384;26;20501;-69
2024/04/17 09:56:44;;;;;;;1.20;1.00;;;23.90;53.70;;;;;;5451197;26;20441;-68
2024/04/17 09:59:11;;;;;;;1.87;1.20;;;24.00;53.70;;;;;;5451196;26;20574;-70
2024/04/17 10:01:38;;;;;;;2.53;1.40;;;23.90;53.70;;;;;;5451017;26;20456;-69
2024/04/17 10:04:05;;;;;;;1.80;1.00;;;23.90;53.70;;;;;;5451126;26;20542;-69
2024/04/17 10:06:34;;;;;;;1.33;1.07;;;23.90;53.70;;;;;;5451202;26;20441;-70
2024/04/17 10:09:02;;;;;;;1.93;1.33;;;23.90;53.70;;;;;;5450840;26;20513;-69
2024/04/17 10:11:27;;;;;;;2.43;1.17;;;24.00;53.70;;;;;;5450810;26;20566;-69
2024/04/17 10:13:54;;;;;;;1.57;1.10;;;23.90;53.70;;;;;;5450789;26;20878;-72
2024/04/17 10:16:20;;;;;;;2.10;1.07;;;23.90;53.70;;;;;;5450971;26;20335;-69
2024/04/17 10:18:46;;;;;;;2.47;1.10;;;23.90;53.60;;;;;;5450536;26;20817;-70
2024/04/17 10:21:21;;;;;;;1.47;1.30;;;23.90;53.60;;;;;;5451064;26;20269;-69
2024/04/17 10:24:00;;;;;;;2.60;1.30;;;24.00;53.70;;;;;;5450866;26;20436;-70
2024/04/17 10:26:58;;;;;;;1.50;1.10;;;24.00;53.70;;;;;;5450833;26;20554;-70
2024/04/17 10:29:26;;;;;;;1.47;1.00;;;24.00;53.70;;;;;;5450990;26;20457;-69
2024/04/17 10:31:57;;;;;;;1.60;0.93;;;23.90;53.70;;;;;;5450739;26;21067;-70
2024/04/17 10:34:25;;;;;;;1.40;1.10;;;24.00;53.80;;;;;;5450998;26;20496;-69
2024/04/17 10:36:58;;;;;;;1.27;1.00;;;23.90;53.70;;;;;;5450609;26;20496;-69
2024/04/17 10:39:26;;;;;;;1.27;1.00;;;23.90;54.20;;;;;;5450697;26;20532;-71
2024/04/17 10:41:52;;;;;;;2.43;0.90;;;24.00;53.80;;;;;;5451006;26;20884;-70
2024/04/17 10:44:21;;;;;;;1.60;1.00;;;23.90;53.70;;;;;;5450864;26;20445;-70
2024/04/17 10:46:47;;;;;;;1.53;1.23;;;24.00;53.70;;;;;;5450894;26;20457;-70
2024/04/17 10:49:16;;;;;;;1.50;1.10;;;23.90;53.70;;;;;;5450262;26;20476;-69
2024/04/17 10:51:43;;;;;;;2.10;1.40;;;23.90;53.70;;;;;;5450506;26;20226;-71
2024/04/17 10:54:11;;;;;;;1.80;1.23;;;24.00;53.80;;;;;;5450677;26;20508;-71
2024/04/17 10:56:37;;;;;;;1.80;1.17;;;23.90;53.70;;;;;;5450448;26;20504;-68
2024/04/17 10:59:04;;;;;;;1.93;1.63;;;24.00;53.80;;;;;;5450522;26;20472;-70
2024/04/17 11:01:30;;;;;;;1.83;0.90;;;23.90;53.70;;;;;;5450928;26;20445;-69
2024/04/17 11:03:56;;;;;;;1.50;1.20;;;23.90;53.70;;;;;;5452389;26;20783;-69
2024/04/17 11:06:23;;;;;;;2.07;1.20;;;23.90;53.70;;;;;;5451858;26;20504;-68
2024/04/17 11:08:49;;;;;;;2.57;2.10;;;23.90;53.80;;;;;;5452087;26;20460;-70
2024/04/17 11:11:33;;;;;;;4.80;2.37;;;23.90;53.80;;;;;;5451242;26;20440;-71
2024/04/17 11:13:59;;;;;;;6.67;3.57;;;23.90;53.80;;;;;;5451581;26;20958;-71
2024/04/17 11:16:25;;;;;;;34.00;12.97;;;23.90;53.80;;;;;;5451090;26;20492;-71
2024/04/17 11:18:51;;;;;;;27.73;14.57;;;23.90;53.80;;;;;;5451202;26;20231;-70
2024/04/17 11:21:16;;;;;;;53.57;25.30;;;23.90;53.80;;;;;;5419449;26;20254;-70
2024/04/17 11:23:44;;;;;;;74.10;31.20;;;23.90;53.80;;;;;;5451144;26;20432;-71
2024/04/17 11:26:11;;;;;;;62.17;26.00;;;23.90;53.80;;;;;;5450880;26;20286;-69
2024/04/17 11:28:41;;;;;;;33.23;17.40;;;23.90;53.90;;;;;;5450621;26;20517;-70
2024/04/17 11:31:09;;;;;;;61.27;23.03;;;23.90;53.80;;;;;;5449495;26;20550;-69
2024/04/17 11:33:35;;;;;;;45.00;19.73;;;23.90;53.90;;;;;;5449832;26;21060;-70
2024/04/17 11:36:20;;;;;;;44.40;19.27;;;23.90;54.10;;;;;;5449886;26;20986;-69
2024/04/17 11:38:46;;;;;;;35.80;13.90;;;23.90;53.80;;;;;;5449772;26;20508;-70
2024/04/17 11:41:15;;;;;;;41.80;18.13;;;23.90;53.90;;;;;;5417838;26;20978;-70
2024/04/17 11:43:41;;;;;;;43.73;18.17;;;23.90;53.90;;;;;;5450249;26;20496;-71
2024/04/17 11:46:09;;;;;;;36.77;15.80;;;23.90;53.90;;;;;;5450005;26;20500;-70
2024/04/17 11:48:35;;;;;;;34.80;15.03;;;23.90;53.80;;;;;;5449598;26;20528;-70
2024/04/17 11:51:01;;;;;;;27.07;14.33;;;23.90;53.80;;;;;;5449702;26;20879;-69
2024/04/17 11:53:27;;;;;;;37.27;18.10;;;23.90;53.80;;;;;;5449937;26;20449;-71
2024/04/17 11:55:53;;;;;;;38.53;17.70;;;23.90;53.80;;;;;;5449256;26;20867;-69
2024/04/17 11:58:19;;;;;;;37.30;15.13;;;24.00;53.90;;;;;;5449861;26;20227;-70
2024/04/17 12:00:45;;;;;;;44.10;18.47;;;24.00;53.90;;;;;;5449207;26;20215;-69
2024/04/17 12:03:10;;;;;;;40.00;17.43;;;24.00;53.90;;;;;;5449307;26;20448;-71
2024/04/17 12:05:36;;;;;;;30.70;16.67;;;23.90;53.80;;;;;;5449058;26;20295;-72
2024/04/17 12:08:02;;;;;;;36.10;17.13;;;24.00;53.90;;;;;;5449508;26;20336;-69
2024/04/17 12:10:27;;;;;;;39.00;17.43;;;23.90;53.80;;;;;;5449474;26;20220;-71
2024/04/17 12:12:53;;;;;;;34.70;15.67;;;24.00;53.90;;;;;;5449492;26;20223;-68
2024/04/17 12:15:19;;;;;;;33.57;15.63;;;24.00;53.90;;;;;;5475988;26;20223;-71
2024/04/17 12:17:44;;;;;;;29.43;13.93;;;24.00;53.90;;;;;;5447574;26;20461;-70
2024/04/17 12:20:10;;;;;;;36.87;15.77;;;24.00;53.90;;;;;;5448937;26;20220;-70
2024/04/17 12:22:36;;;;;;;28.70;15.50;;;24.00;53.90;;;;;;5448671;26;20335;-71
2024/04/17 12:27:46;;;;;;;36.87;16.00;;;24.00;53.90;;;;;;5449387;26;20278;-70
2024/04/17 12:30:11;;;;;;;28.63;13.70;;;24.00;53.90;;;;;;5448961;26;20449;-68
2024/04/17 12:32:37;;;;;;;20.43;12.23;;;24.00;53.90;;;;;;5449327;26;20227;-70
2024/04/17 12:35:04;;;;;;;24.70;12.77;;;24.00;53.90;;;;;;5448962;26;20216;-68
2024/04/17 12:37:29;;;;;;;21.63;10.97;;;24.00;53.90;;;;;;5448822;26;20283;-70
2024/04/17 12:39:55;;;;;;;24.00;13.07;;;24.00;53.90;;;;;;5448669;26;20448;-70
2024/04/17 12:42:22;;;;;;;25.23;12.53;;;24.00;53.90;;;;;;5448939;26;20223;-70
2024/04/17 12:44:48;;;;;;;28.90;13.10;;;24.00;53.90;;;;;;5452221;26;20428;-69